< < Back
Terminal Aerodrome Forecast


Current Version              Previous Versions:   1  2  3  4  5  6  7  8  9  

Terminal Aerodrome Forecast

221
FTUS42 KILM 241728
TAFILM
TAF
KILM 241728Z 2418/2518 35006KT P6SM SCT030
     FM242000 07007KT P6SM SCT050
     FM250000 05003KT P6SM FEW020
      TEMPO 2508/2512 3SM BR
     FM251500 04008KT P6SM SCT250=

Latest METAR

405
SAUS70 KWBC 250500 RRI
MTRILM
METAR KILM 250453Z 00000KT 8SM CLR 22/21 A3004 RMK AO2 SLP173 T02170206
403110206


USA.gov is the U.S. government's official web portal to all federal, state and local government web resources and services.